Wind From: 20-06-2018 11:00 Until: 22:00 warning for: Wind Level: Yellow info button
suomi:
Tuulivaroitus maa-alueille: Länsituuli on voimakasta keskipäivästä alkaen, tuulen nopeus puuskissa 15 m/s.

svenska:
Vindvarning för landområden: Från och med middagen är den västliga vinden kraftigt, i vindbyarna 15 m/s.

english:
Wind warning for land areas: From noon on, strong winds from west may bring strong gusts of 15 m/s. 


Thunder radar more information blitzortung!


Löydät sääaseman tiedot myös:

European Weather Network

Finland Weather Exchange

Weather Underground

AWEKAS



Weather Underground säähistoriasivu

Päivittäin yhteenveto Tammikuu 17, 2017 Yksiköt:  Molemmat    Englantilaiset   Metriset
« Edellinen Päivä
Seuraava Päivä »
Päivittäin Viikoittain Kuukausittain Vuosittain Mukautettu
  Korkea: Matala: Keskiarvo:
Lämpötila: TemperatureC °F /  -17.8 °C -5.3 °F /  -20.7 °C -2 °F /  -18.9 °C
Kastepiste: DewpointC °F /  -17.8 °C -6.0 °F /  -21.1 °C -2.7 °F /  -19.3 °C
Kosteus: Humidity % 92 % 94 %
Tuulen nopeus: WindSpeedKMH mph /  0 km/h - 5.6 mph /  9 km/h
Tuulenpuuska: WindSpeedGustKMH mph /  0 km/h - -
Tuuli:- - SSW
Ilmanpaine: PressurehPa in /  0 hPa 1020.5 in /  34554.1 hPa -
Sade: 0.0 in /  0 mm    
Historical Graphs
 
 
Taulukkotiedot Tammikuu 17, 2017
Aika Lämpötila Kastepiste Ilmanpaine Tuuli Tuulen nopeus Tuulenpuuska Kosteus Sademäärä (tunneittain)
TemperatureC °F /  -17.8 °C DewpointC °F /  -17.8 °C PressurehPa in /  0 hPa Calm     Humidity % HourlyPrecipMM in /  0 mm
00:00 -4.6 °F /  -20.3 °C -5.2 °F /  -20.7 °C 1025.6 in /  34726.8 hPa SSW 1.6 mph /  2.6 km/h 3.2 mph /  5.1 km/h 95 % 0.0 in /  0 mm
00:15 -4.7 °F /  -20.4 °C -5.2 °F /  -20.7 °C 1025.6 in /  34726.8 hPa SSW 1.6 mph /  2.6 km/h 4.8 mph /  7.7 km/h 96 % 0.0 in /  0 mm
00:30 -4.6 °F /  -20.3 °C -5.2 °F /  -20.7 °C 1025.6 in /  34726.8 hPa SSW 1.6 mph /  2.6 km/h 6.4 mph /  10.3 km/h 96 % 0.0 in /  0 mm
00:45 -4.7 °F /  -20.4 °C -5.2 °F /  -20.7 °C 1025.6 in /  34726.8 hPa Calm   3.2 mph /  5.1 km/h 96 % 0.0 in /  0 mm
01:00 -4.8 °F /  -20.4 °C -5.5 °F /  -20.8 °C 1025.6 in /  34726.8 hPa SSW 1.6 mph /  2.6 km/h 4.8 mph /  7.7 km/h 95 % 0.0 in /  0 mm
01:15 -5.0 °F /  -20.6 °C -5.7 °F /  -20.9 °C 1025.6 in /  34726.8 hPa Calm   4.8 mph /  7.7 km/h 95 % 0.0 in /  0 mm
01:30 -5.2 °F /  -20.7 °C -5.8 °F /  -21 °C 1025.6 in /  34726.8 hPa Calm   4.8 mph /  7.7 km/h 95 % 0.0 in /  0 mm
01:45 -5.2 °F /  -20.7 °C -5.9 °F /  -21.1 °C 1025.6 in /  34726.8 hPa SSW 1.6 mph /  2.6 km/h 6.4 mph /  10.3 km/h 95 % 0.0 in /  0 mm
02:00 -5.3 °F /  -20.7 °C -6.0 °F /  -21.1 °C 1025.6 in /  34726.8 hPa South 1.6 mph /  2.6 km/h 6.4 mph /  10.3 km/h 95 % 0.0 in /  0 mm
02:15 -5.3 °F /  -20.7 °C -6.0 °F /  -21.1 °C 1025.6 in /  34726.8 hPa South 1.6 mph /  2.6 km/h 4.8 mph /  7.7 km/h 95 % 0.0 in /  0 mm
02:30 -5.3 °F /  -20.7 °C -6.0 °F /  -21.1 °C 1026.0 in /  34740.4 hPa SSW 1.6 mph /  2.6 km/h 6.4 mph /  10.3 km/h 95 % 0.0 in /  0 mm
02:45 -5.2 °F /  -20.7 °C -5.9 °F /  -21.1 °C 1025.6 in /  34726.8 hPa SSW 1.6 mph /  2.6 km/h 4.8 mph /  7.7 km/h 95 % 0.0 in /  0 mm
03:00 -5.3 °F /  -20.7 °C -6.0 °F /  -21.1 °C 1025.6 in /  34726.8 hPa SSW 1.6 mph /  2.6 km/h 4.8 mph /  7.7 km/h 95 % 0.0 in /  0 mm
03:15 -5.3 °F /  -20.7 °C -6.0 °F /  -21.1 °C 1025.6 in /  34726.8 hPa Calm   3.2 mph /  5.1 km/h 95 % 0.0 in /  0 mm
03:30 -5.3 °F /  -20.7 °C -6.0 °F /  -21.1 °C 1025.3 in /  34716.7 hPa South 1.6 mph /  2.6 km/h 3.2 mph /  5.1 km/h 95 % 0.0 in /  0 mm
03:45 -5.2 °F /  -20.7 °C -5.9 °F /  -21.1 °C 1025.3 in /  34716.7 hPa South 1.6 mph /  2.6 km/h 6.4 mph /  10.3 km/h 95 % 0.0 in /  0 mm
04:00 -5.2 °F /  -20.7 °C -5.9 °F /  -21.1 °C 1025.3 in /  34716.7 hPa South 1.6 mph /  2.6 km/h 8.0 mph /  12.9 km/h 95 % 0.0 in /  0 mm
04:15 -5.2 °F /  -20.7 °C -5.9 °F /  -21.1 °C 1025.3 in /  34716.7 hPa South 1.6 mph /  2.6 km/h 6.4 mph /  10.3 km/h 95 % 0.0 in /  0 mm
04:30 -5.1 °F /  -20.6 °C -5.8 °F /  -21 °C 1025.3 in /  34716.7 hPa SSW 1.6 mph /  2.6 km/h 8.0 mph /  12.9 km/h 95 % 0.0 in /  0 mm
05:00 -4.8 °F /  -20.4 °C -5.4 °F /  -20.8 °C 1024.9 in /  34703.1 hPa SSW 1.6 mph /  2.6 km/h 8.0 mph /  12.9 km/h 96 % 0.0 in /  0 mm
05:15 -4.8 °F /  -20.4 °C -5.4 °F /  -20.8 °C 1024.9 in /  34703.1 hPa SSW 3.2 mph /  5.1 km/h 9.7 mph /  15.6 km/h 96 % 0.0 in /  0 mm
05:30 -4.7 °F /  -20.4 °C -5.3 °F /  -20.7 °C 1024.9 in /  34703.1 hPa SSW 1.6 mph /  2.6 km/h 6.4 mph /  10.3 km/h 96 % 0.0 in /  0 mm
05:45 -4.6 °F /  -20.3 °C -5.1 °F /  -20.6 °C 1025.3 in /  34716.7 hPa Calm   4.8 mph /  7.7 km/h 96 % 0.0 in /  0 mm
06:00 -4.3 °F /  -20.2 °C -4.9 °F /  -20.5 °C 1024.9 in /  34703.1 hPa SW 1.6 mph /  2.6 km/h 8.0 mph /  12.9 km/h 96 % 0.0 in /  0 mm
06:15 -4.1 °F /  -20.1 °C -4.7 °F /  -20.4 °C 1024.9 in /  34703.1 hPa Calm   3.2 mph /  5.1 km/h 96 % 0.0 in /  0 mm
06:30 -3.8 °F /  -19.9 °C -4.3 °F /  -20.2 °C 1024.9 in /  34703.1 hPa SSW 1.6 mph /  2.6 km/h 6.4 mph /  10.3 km/h 96 % 0.0 in /  0 mm
06:45 -3.3 °F /  -19.6 °C -3.7 °F /  -19.8 °C 1024.9 in /  34703.1 hPa SSW 1.6 mph /  2.6 km/h 8.0 mph /  12.9 km/h 97 % 0.0 in /  0 mm
07:00 -3.1 °F /  -19.5 °C -3.5 °F /  -19.7 °C 1024.6 in /  34693 hPa SSW 3.2 mph /  5.1 km/h 6.4 mph /  10.3 km/h 97 % 0.0 in /  0 mm
07:15 -2.8 °F /  -19.3 °C -3.2 °F /  -19.6 °C 1024.6 in /  34693 hPa SSW 3.2 mph /  5.1 km/h 11.3 mph /  18.2 km/h 97 % 0.0 in /  0 mm
07:30 -2.5 °F /  -19.2 °C -2.9 °F /  -19.4 °C 1024.3 in /  34682.8 hPa South 3.2 mph /  5.1 km/h 11.3 mph /  18.2 km/h 97 % 0.0 in /  0 mm
07:45 -2.3 °F /  -19.1 °C -2.7 °F /  -19.3 °C 1024.3 in /  34682.8 hPa SSW 3.2 mph /  5.1 km/h 8.0 mph /  12.9 km/h 97 % 0.0 in /  0 mm
08:00 -2.3 °F /  -19.1 °C -2.7 °F /  -19.3 °C 1024.3 in /  34682.8 hPa SSW 3.2 mph /  5.1 km/h 9.7 mph /  15.6 km/h 97 % 0.0 in /  0 mm
08:15 -2.2 °F /  -19 °C -2.6 °F /  -19.2 °C 1024.3 in /  34682.8 hPa SSW 3.2 mph /  5.1 km/h 11.3 mph /  18.2 km/h 97 % 0.0 in /  0 mm
08:30 -2.2 °F /  -19 °C -2.6 °F /  -19.2 °C 1023.9 in /  34669.3 hPa SSW 4.8 mph /  7.7 km/h 11.3 mph /  18.2 km/h 97 % 0.0 in /  0 mm
08:45 -2.4 °F /  -19.1 °C -2.9 °F /  -19.4 °C 1023.9 in /  34669.3 hPa SSW 1.6 mph /  2.6 km/h 8.0 mph /  12.9 km/h 96 % 0.0 in /  0 mm
09:00 -2.5 °F /  -19.2 °C -3.1 °F /  -19.5 °C 1023.9 in /  34669.3 hPa SSW 3.2 mph /  5.1 km/h 8.0 mph /  12.9 km/h 96 % 0.0 in /  0 mm
09:15 -2.5 °F /  -19.2 °C -2.9 °F /  -19.4 °C 1023.6 in /  34659.1 hPa SSW 4.8 mph /  7.7 km/h 11.3 mph /  18.2 km/h 97 % 0.0 in /  0 mm
09:30 -2.4 °F /  -19.1 °C -2.9 °F /  -19.4 °C 1023.6 in /  34659.1 hPa SSW 4.8 mph /  7.7 km/h 11.3 mph /  18.2 km/h 97 % 0.0 in /  0 mm
09:45 -2.3 °F /  -19.1 °C -2.9 °F /  -19.4 °C 1023.2 in /  34645.6 hPa SSW 4.8 mph /  7.7 km/h 12.9 mph /  20.8 km/h 96 % 0.0 in /  0 mm
10:00 -2.2 °F /  -19 °C -2.6 °F /  -19.2 °C 1023.2 in /  34645.6 hPa SSW 4.8 mph /  7.7 km/h 11.3 mph /  18.2 km/h 97 % 0.0 in /  0 mm
10:15 -2.1 °F /  -18.9 °C -2.5 °F /  -19.2 °C 1023.2 in /  34645.6 hPa SSW 4.8 mph /  7.7 km/h 17.7 mph /  28.5 km/h 97 % 0.0 in /  0 mm
10:30 -1.9 °F /  -18.8 °C -2.5 °F /  -19.2 °C 1023.2 in /  34645.6 hPa SSW 4.8 mph /  7.7 km/h 12.9 mph /  20.8 km/h 96 % 0.0 in /  0 mm
10:45 -1.8 °F /  -18.8 °C -2.2 °F /  -19 °C 1023.2 in /  34645.6 hPa SSW 4.8 mph /  7.7 km/h 12.9 mph /  20.8 km/h 97 % 0.0 in /  0 mm
11:00 -1.7 °F /  -18.7 °C -2.2 °F /  -19 °C 1023.2 in /  34645.6 hPa SSW 4.8 mph /  7.7 km/h 9.7 mph /  15.6 km/h 96 % 0.0 in /  0 mm
11:15 -1.6 °F /  -18.7 °C -2.0 °F /  -18.9 °C 1023.2 in /  34645.6 hPa SSW 6.4 mph /  10.3 km/h 17.7 mph /  28.5 km/h 97 % 0.0 in /  0 mm
11:30 -1.6 °F /  -18.7 °C -2.1 °F /  -18.9 °C 1023.2 in /  34645.6 hPa SSW 4.8 mph /  7.7 km/h 14.5 mph /  23.3 km/h 96 % 0.0 in /  0 mm
11:45 -1.5 °F /  -18.6 °C -2.1 °F /  -18.9 °C 1022.9 in /  34635.4 hPa SSW 6.4 mph /  10.3 km/h 14.5 mph /  23.3 km/h 96 % 0.0 in /  0 mm
12:00 -1.4 °F /  -18.6 °C -1.9 °F /  -18.8 °C 1022.6 in /  34625.2 hPa SSW 6.4 mph /  10.3 km/h 17.7 mph /  28.5 km/h 96 % 0.0 in /  0 mm
12:15 -1.3 °F /  -18.5 °C -1.8 °F /  -18.8 °C 1022.2 in /  34611.7 hPa SSW 6.4 mph /  10.3 km/h 14.5 mph /  23.3 km/h 96 % 0.0 in /  0 mm
12:30 -1.2 °F /  -18.4 °C -1.7 °F /  -18.7 °C 1022.2 in /  34611.7 hPa SSW 6.4 mph /  10.3 km/h 16.1 mph /  25.9 km/h 96 % 0.0 in /  0 mm
12:45 -1.0 °F /  -18.3 °C -1.6 °F /  -18.7 °C 1022.2 in /  34611.7 hPa SSW 8.0 mph /  12.9 km/h 16.1 mph /  25.9 km/h 96 % 0.0 in /  0 mm
13:00 -0.8 °F /  -18.2 °C -1.4 °F /  -18.6 °C 1022.6 in /  34625.2 hPa SSW 8.0 mph /  12.9 km/h 19.3 mph /  31.1 km/h 96 % 0.0 in /  0 mm
13:15 -0.7 °F /  -18.2 °C -1.2 °F /  -18.4 °C 1022.2 in /  34611.7 hPa SSW 8.0 mph /  12.9 km/h 16.1 mph /  25.9 km/h 96 % 0.0 in /  0 mm
13:30 -0.5 °F /  -18.1 °C -1.2 °F /  -18.4 °C 1022.2 in /  34611.7 hPa SSW 8.0 mph /  12.9 km/h 17.7 mph /  28.5 km/h 95 % 0.0 in /  0 mm
13:45 -0.4 °F /  -18 °C -1.1 °F /  -18.4 °C 1022.2 in /  34611.7 hPa SSW 8.0 mph /  12.9 km/h 19.3 mph /  31.1 km/h 95 % 0.0 in /  0 mm
14:00 -0.4 °F /  -18 °C -1.1 °F /  -18.4 °C 1022.2 in /  34611.7 hPa SSW 8.0 mph /  12.9 km/h 16.1 mph /  25.9 km/h 95 % 0.0 in /  0 mm
14:15 -0.4 °F /  -18 °C -1.2 °F /  -18.4 °C 1022.2 in /  34611.7 hPa SSW 8.0 mph /  12.9 km/h 16.1 mph /  25.9 km/h 94 % 0.0 in /  0 mm
14:30 -0.3 °F /  -17.9 °C -1.2 °F /  -18.4 °C 1021.9 in /  34601.5 hPa SSW 6.4 mph /  10.3 km/h 14.5 mph /  23.3 km/h 94 % 0.0 in /  0 mm
14:45 -0.3 °F /  -17.9 °C -1.1 °F /  -18.4 °C 1021.9 in /  34601.5 hPa SSW 6.4 mph /  10.3 km/h 14.5 mph /  23.3 km/h 94 % 0.0 in /  0 mm
15:00 -0.3 °F /  -17.9 °C -1.1 °F /  -18.4 °C 1021.9 in /  34601.5 hPa SSW 6.4 mph /  10.3 km/h 12.9 mph /  20.8 km/h 94 % 0.0 in /  0 mm
15:15 -0.3 °F /  -17.9 °C -1.1 °F /  -18.4 °C 1021.6 in /  34591.4 hPa SSW 6.4 mph /  10.3 km/h 17.7 mph /  28.5 km/h 94 % 0.0 in /  0 mm
15:30 -0.2 °F /  -17.9 °C -1.1 °F /  -18.4 °C 1021.6 in /  34591.4 hPa SSW 8.0 mph /  12.9 km/h 20.9 mph /  33.6 km/h 94 % 0.0 in /  0 mm
15:45 -0.2 °F /  -17.9 °C -1.2 °F /  -18.4 °C 1021.6 in /  34591.4 hPa SSW 8.0 mph /  12.9 km/h 17.7 mph /  28.5 km/h 93 % 0.0 in /  0 mm
16:00 -0.2 °F /  -17.9 °C -1.2 °F /  -18.4 °C 1021.9 in /  34601.5 hPa SSW 8.0 mph /  12.9 km/h 17.7 mph /  28.5 km/h 93 % 0.0 in /  0 mm
16:15 -0.2 °F /  -17.9 °C -1.4 °F /  -18.6 °C 1021.9 in /  34601.5 hPa SSW 6.4 mph /  10.3 km/h 25.7 mph /  41.4 km/h 92 % 0.0 in /  0 mm
16:30 -0.3 °F /  -17.9 °C -1.4 °F /  -18.6 °C 1021.6 in /  34591.4 hPa SSW 8.0 mph /  12.9 km/h 16.1 mph /  25.9 km/h 92 % 0.0 in /  0 mm
16:45 -0.3 °F /  -17.9 °C -1.4 °F /  -18.6 °C 1021.6 in /  34591.4 hPa SSW 9.7 mph /  15.6 km/h 19.3 mph /  31.1 km/h 92 % 0.0 in /  0 mm
17:00 -0.3 °F /  -17.9 °C -1.5 °F /  -18.6 °C 1021.9 in /  34601.5 hPa SSW 9.7 mph /  15.6 km/h 17.7 mph /  28.5 km/h 92 % 0.0 in /  0 mm
17:15 -0.4 °F /  -18 °C -1.5 °F /  -18.6 °C 1021.6 in /  34591.4 hPa SSW 9.7 mph /  15.6 km/h 17.7 mph /  28.5 km/h 92 % 0.0 in /  0 mm
17:30 -0.4 °F /  -18 °C -1.6 °F /  -18.7 °C 1021.2 in /  34577.8 hPa SSW 9.7 mph /  15.6 km/h 20.9 mph /  33.6 km/h 92 % 0.0 in /  0 mm
17:45 -0.4 °F /  -18 °C -1.6 °F /  -18.7 °C 1021.2 in /  34577.8 hPa SSW 8.0 mph /  12.9 km/h 14.5 mph /  23.3 km/h 92 % 0.0 in /  0 mm
18:00 -0.4 °F /  -18 °C -1.6 °F /  -18.7 °C 1021.2 in /  34577.8 hPa SSW 9.7 mph /  15.6 km/h 20.9 mph /  33.6 km/h 92 % 0.0 in /  0 mm
18:15 -0.4 °F /  -18 °C -1.5 °F /  -18.6 °C 1021.2 in /  34577.8 hPa SSW 11.3 mph /  18.2 km/h 19.3 mph /  31.1 km/h 92 % 0.0 in /  0 mm
18:30 -0.4 °F /  -18 °C -1.5 °F /  -18.6 °C 1021.2 in /  34577.8 hPa SSW 8.0 mph /  12.9 km/h 19.3 mph /  31.1 km/h 92 % 0.0 in /  0 mm
18:45 -0.4 °F /  -18 °C -1.5 °F /  -18.6 °C 1021.2 in /  34577.8 hPa SSW 8.0 mph /  12.9 km/h 19.3 mph /  31.1 km/h 92 % 0.0 in /  0 mm
19:00 -0.4 °F /  -18 °C -1.4 °F /  -18.6 °C 1021.2 in /  34577.8 hPa SSW 9.7 mph /  15.6 km/h 19.3 mph /  31.1 km/h 93 % 0.0 in /  0 mm
19:15 -0.4 °F /  -18 °C -1.5 °F /  -18.6 °C 1021.2 in /  34577.8 hPa SSW 11.3 mph /  18.2 km/h 19.3 mph /  31.1 km/h 92 % 0.0 in /  0 mm
19:30 -0.3 °F /  -17.9 °C -1.3 °F /  -18.5 °C 1020.9 in /  34567.7 hPa SSW 9.7 mph /  15.6 km/h 24.1 mph /  38.8 km/h 93 % 0.0 in /  0 mm
19:45 -0.3 °F /  -17.9 °C -1.3 °F /  -18.5 °C 1020.9 in /  34567.7 hPa SSW 11.3 mph /  18.2 km/h 25.7 mph /  41.4 km/h 93 % 0.0 in /  0 mm
20:00 -0.4 °F /  -18 °C -1.4 °F /  -18.6 °C 1020.9 in /  34567.7 hPa SSW 11.3 mph /  18.2 km/h 29.0 mph /  46.7 km/h 93 % 0.0 in /  0 mm
20:15 -0.4 °F /  -18 °C -1.2 °F /  -18.4 °C 1020.9 in /  34567.7 hPa SSW 9.7 mph /  15.6 km/h 20.9 mph /  33.6 km/h 94 % 0.0 in /  0 mm
20:30 -0.4 °F /  -18 °C -1.4 °F /  -18.6 °C 1020.5 in /  34554.1 hPa SSW 9.7 mph /  15.6 km/h 22.5 mph /  36.2 km/h 93 % 0.0 in /  0 mm
20:45 -0.3 °F /  -17.9 °C -1.3 °F /  -18.5 °C 1020.5 in /  34554.1 hPa SSW 11.3 mph /  18.2 km/h 27.4 mph /  44.1 km/h 93 % 0.0 in /  0 mm
21:00 -0.3 °F /  -17.9 °C -1.3 °F /  -18.5 °C 1020.5 in /  34554.1 hPa SSW 11.3 mph /  18.2 km/h 32.2 mph /  51.8 km/h 93 % 0.0 in /  0 mm
21:15 -0.3 °F /  -17.9 °C -1.3 °F /  -18.5 °C 1020.9 in /  34567.7 hPa SSW 8.0 mph /  12.9 km/h 16.1 mph /  25.9 km/h 93 % 0.0 in /  0 mm
21:30 -0.3 °F /  -17.9 °C -1.3 °F /  -18.5 °C 1020.9 in /  34567.7 hPa SSW 9.7 mph /  15.6 km/h 27.4 mph /  44.1 km/h 93 % 0.0 in /  0 mm
21:45 -0.2 °F /  -17.9 °C -1.2 °F /  -18.4 °C 1020.9 in /  34567.7 hPa SSW 8.0 mph /  12.9 km/h 19.3 mph /  31.1 km/h 93 % 0.0 in /  0 mm
22:00 -0.1 °F /  -17.8 °C -1.1 °F /  -18.4 °C 1020.9 in /  34567.7 hPa SSW 9.7 mph /  15.6 km/h 29.0 mph /  46.7 km/h 93 % 0.0 in /  0 mm
22:15 -0.1 °F /  -17.8 °C -0.9 °F /  -18.3 °C 1021.2 in /  34577.8 hPa SSW 8.0 mph /  12.9 km/h 29.0 mph /  46.7 km/h 94 % 0.0 in /  0 mm
22:30 0.0 °F /  -17.8 °C 0.0 °F /  -17.8 °C 1020.9 in /  34567.7 hPa SSW 12.9 mph /  20.8 km/h 32.2 mph /  51.8 km/h 100 % 0.0 in /  0 mm
22:45 0.1 °F /  -17.7 °C -0.8 °F /  -18.2 °C 1021.2 in /  34577.8 hPa SSW 9.7 mph /  15.6 km/h 22.5 mph /  36.2 km/h 94 % 0.0 in /  0 mm
23:00 0.1 °F /  -17.7 °C -0.8 °F /  -18.2 °C 1021.2 in /  34577.8 hPa SSW 8.0 mph /  12.9 km/h 17.7 mph /  28.5 km/h 94 % 0.0 in /  0 mm
23:15 0.1 °F /  -17.7 °C -0.7 °F /  -18.2 °C 1021.6 in /  34591.4 hPa SSW 8.0 mph /  12.9 km/h 25.7 mph /  41.4 km/h 94 % 0.0 in /  0 mm
23:30 0.2 °F /  -17.7 °C -0.6 °F /  -18.1 °C 1021.6 in /  34591.4 hPa SSW 8.0 mph /  12.9 km/h 19.3 mph /  31.1 km/h 94 % 0.0 in /  0 mm
23:45 0.3 °F /  -17.6 °C -0.4 °F /  -18 °C 1021.6 in /  34591.4 hPa SSW 9.7 mph /  15.6 km/h 19.3 mph /  31.1 km/h 95 % 0.0 in /  0 mm
Esan sääasema
Terveisin Weather Underground - 2.75 mb

Alkuperäinen skripti  Jim McMurry - jmcmurry@mwt.net Sovitettu myös templatelle  Wim van der Kuil - Leuven-Template.eu

Laitteet joita käytämme:

Sääasema
Davis VP2

Sääasemaohjelma
Cumulus

Sääaseman tietokone
Asus EeePC

Palveluntarjoaja
Suncomet

Davis VP2

Cumulus

Asus EeePC

Suncomet